Time;durP1;ratioP1;P1;durP2;ratioP2;P2;SDS_P1;SDS_P2;PMS_P1;PMS_P2;Temp;Humidity;BMP_temperature;BMP_pressure;BME280_temperature;BME280_humidity;BME280_pressure;Samples;Min_cycle;Max_cycle;Signal;HPM_P1;HPM_P2
2023/04/26 00:01:13;;;;;;;7.50;4.28;;;6.80;99.90;;;;;;5042081;28;20102;-32
2023/04/26 00:03:39;;;;;;;7.20;4.68;;;6.80;99.90;;;;;;5039601;28;20036;-32
2023/04/26 00:06:08;;;;;;;7.40;4.70;;;6.80;99.90;;;;;;5040101;28;20033;-32
2023/04/26 00:08:34;;;;;;;7.18;4.43;;;6.70;99.90;;;;;;5041228;28;20025;-34
2023/04/26 00:11:00;;;;;;;7.22;4.53;;;6.70;99.90;;;;;;5046615;28;20017;-32
2023/04/26 00:13:26;;;;;;;5.93;4.15;;;6.80;99.90;;;;;;5036723;28;20540;-32
2023/04/26 00:15:51;;;;;;;5.15;4.47;;;6.70;99.90;;;;;;5035032;28;20021;-33
2023/04/26 00:18:17;;;;;;;6.35;4.55;;;6.70;99.90;;;;;;5039401;28;20064;-32
2023/04/26 00:20:43;;;;;;;5.93;4.68;;;6.70;99.90;;;;;;5041181;28;20395;-33
2023/04/26 00:23:09;;;;;;;6.43;4.60;;;6.70;99.90;;;;;;5038606;28;20033;-33
2023/04/26 00:25:36;;;;;;;7.25;5.03;;;6.60;99.90;;;;;;5042377;28;20482;-34
2023/04/26 00:28:02;;;;;;;7.03;4.68;;;6.60;99.90;;;;;;5035861;28;20074;-33
2023/04/26 00:30:28;;;;;;;7.47;4.90;;;6.60;99.90;;;;;;5039397;28;20056;-32
2023/04/26 00:32:53;;;;;;;9.63;5.90;;;6.60;99.90;;;;;;5036942;28;20455;-32
2023/04/26 00:35:20;;;;;;;9.45;4.47;;;6.60;99.90;;;;;;5041053;28;20071;-32
2023/04/26 00:37:45;;;;;;;8.48;4.95;;;6.60;99.90;;;;;;5038403;28;20052;-32
2023/04/26 00:40:12;;;;;;;8.77;5.25;;;6.60;99.90;;;;;;5043089;28;20048;-32
2023/04/26 00:42:38;;;;;;;7.60;4.72;;;6.60;99.90;;;;;;5040332;28;20036;-32
2023/04/26 00:45:06;;;;;;;9.45;5.38;;;6.50;99.90;;;;;;5036194;28;20540;-32
2023/04/26 00:47:32;;;;;;;6.53;4.38;;;6.60;99.90;;;;;;5036322;28;20525;-33
2023/04/26 00:49:58;;;;;;;8.85;5.00;;;6.60;99.90;;;;;;5039447;28;20116;-32
2023/04/26 00:52:24;;;;;;;8.77;5.53;;;6.60;99.90;;;;;;5041323;28;20033;-32
2023/04/26 00:54:50;;;;;;;8.38;5.00;;;6.60;99.90;;;;;;5037688;28;20076;-33
2023/04/26 00:57:16;;;;;;;6.05;4.75;;;6.60;99.90;;;;;;5046482;28;20477;-32
2023/04/26 00:59:41;;;;;;;6.00;3.90;;;6.60;99.90;;;;;;5045953;28;20036;-34
2023/04/26 01:02:08;;;;;;;6.65;4.85;;;6.50;99.90;;;;;;5047009;28;20703;-32
2023/04/26 01:04:33;;;;;;;7.35;4.68;;;6.40;99.90;;;;;;5042720;28;20064;-32
2023/04/26 01:07:02;;;;;;;6.07;4.50;;;6.40;99.90;;;;;;5040467;28;20041;-32
2023/04/26 01:09:31;;;;;;;7.50;4.40;;;6.40;99.90;;;;;;5045603;28;20494;-32
2023/04/26 01:11:57;;;;;;;8.15;4.80;;;6.40;99.90;;;;;;5046913;28;20037;-32
2023/04/26 01:14:23;;;;;;;8.30;4.68;;;6.40;99.90;;;;;;5042894;28;20395;-32
2023/04/26 01:16:51;;;;;;;6.55;4.93;;;6.50;99.90;;;;;;5044227;28;20053;-32
2023/04/26 01:19:17;;;;;;;8.20;4.63;;;6.50;99.90;;;;;;5040235;28;20037;-32
2023/04/26 01:21:43;;;;;;;7.07;4.38;;;6.50;99.90;;;;;;5039727;28;20398;-32
2023/04/26 01:24:09;;;;;;;8.20;4.82;;;6.50;99.90;;;;;;5027674;28;20033;-33
2023/04/26 01:26:42;;;;;;;7.28;4.43;;;6.40;99.90;;;;;;5042178;28;20053;-33
2023/04/26 01:29:19;;;;;;;6.82;4.45;;;6.40;99.90;;;;;;5041640;28;20045;-33
2023/04/26 01:31:45;;;;;;;6.75;4.28;;;6.40;99.90;;;;;;5039405;28;20090;-32
2023/04/26 01:34:11;;;;;;;8.73;5.25;;;6.30;99.90;;;;;;5043952;28;20035;-32
2023/04/26 01:36:37;;;;;;;8.20;4.50;;;6.30;99.90;;;;;;5040302;28;20029;-33
2023/04/26 01:39:03;;;;;;;8.88;4.78;;;6.20;99.90;;;;;;5049869;28;20029;-33
2023/04/26 01:41:28;;;;;;;5.78;4.53;;;6.20;99.90;;;;;;5046411;28;20025;-33
2023/04/26 01:43:54;;;;;;;8.77;4.80;;;6.20;99.90;;;;;;5042574;28;20044;-33
2023/04/26 01:46:21;;;;;;;7.55;4.72;;;6.20;99.90;;;;;;5044397;28;20471;-32
2023/04/26 01:48:46;;;;;;;6.75;4.10;;;6.20;99.90;;;;;;5045725;28;20028;-32
2023/04/26 01:51:12;;;;;;;6.75;4.70;;;6.30;99.90;;;;;;5039948;28;20030;-32
2023/04/26 01:53:38;;;;;;;5.50;3.72;;;6.20;99.90;;;;;;5040369;28;20067;-33
2023/04/26 01:56:04;;;;;;;7.70;4.25;;;6.10;99.90;;;;;;5043994;28;20140;-33
2023/04/26 01:58:30;;;;;;;8.93;4.43;;;6.10;99.90;;;;;;5045805;28;20033;-32
2023/04/26 02:01:03;;;;;;;8.90;4.50;;;5.90;99.90;;;;;;5045484;28;20501;-33
2023/04/26 02:03:28;;;;;;;4.47;3.63;;;5.90;99.90;;;;;;5040163;28;20138;-33
2023/04/26 02:05:54;;;;;;;7.45;3.92;;;5.80;99.90;;;;;;5044392;28;20482;-32
2023/04/26 02:08:20;;;;;;;6.43;3.90;;;5.80;99.90;;;;;;5043471;28;20020;-33
2023/04/26 02:10:45;;;;;;;5.45;4.05;;;5.90;99.90;;;;;;5042244;28;20017;-33
2023/04/26 02:13:11;;;;;;;8.70;3.67;;;5.90;99.90;;;;;;5044365;28;20516;-33
2023/04/26 02:15:36;;;;;;;7.25;4.95;;;5.90;99.90;;;;;;5041861;28;20429;-33
2023/04/26 02:18:02;;;;;;;5.32;4.55;;;5.90;99.90;;;;;;5023766;28;20532;-33
2023/04/26 02:20:28;;;;;;;7.22;4.43;;;5.90;99.90;;;;;;5041456;28;20033;-33
2023/04/26 02:22:53;;;;;;;6.18;3.78;;;5.90;99.90;;;;;;5042530;28;20056;-33
2023/04/26 02:25:20;;;;;;;6.47;4.20;;;6.00;99.90;;;;;;5040036;28;20029;-33
2023/04/26 02:27:45;;;;;;;10.07;4.20;;;6.10;99.90;;;;;;5039632;28;20028;-32
2023/04/26 02:30:11;;;;;;;8.32;4.95;;;6.00;99.90;;;;;;5022357;28;20025;-32
2023/04/26 02:32:37;;;;;;;4.28;3.42;;;6.00;99.90;;;;;;5022286;28;20036;-32
2023/04/26 02:35:04;;;;;;;8.93;4.80;;;6.00;99.90;;;;;;5023691;28;20034;-32
2023/04/26 02:37:31;;;;;;;7.00;4.05;;;6.00;99.90;;;;;;4996186;28;20036;-32
2023/04/26 02:39:56;;;;;;;7.80;4.53;;;6.00;99.90;;;;;;5026269;28;20044;-35
2023/04/26 02:42:22;;;;;;;6.70;4.88;;;6.00;99.90;;;;;;5019711;28;20022;-33
2023/04/26 02:44:47;;;;;;;6.93;4.47;;;6.10;99.90;;;;;;5021105;28;20033;-33
2023/04/26 02:47:14;;;;;;;6.82;4.30;;;6.10;99.90;;;;;;5022613;28;20116;-33
2023/04/26 02:49:40;;;;;;;7.53;4.57;;;6.10;99.90;;;;;;5023592;28;20025;-32
2023/04/26 02:52:06;;;;;;;7.70;4.13;;;6.10;99.90;;;;;;5023686;28;20477;-32
2023/04/26 02:54:31;;;;;;;9.70;4.70;;;6.10;99.90;;;;;;5027188;28;20030;-32
2023/04/26 02:56:57;;;;;;;6.38;3.72;;;6.10;99.90;;;;;;5023780;28;20108;-32
2023/04/26 02:59:23;;;;;;;6.05;4.22;;;6.10;99.90;;;;;;5021779;28;20099;-32
2023/04/26 03:01:48;;;;;;;7.13;4.60;;;6.00;99.90;;;;;;5016788;28;20042;-32
2023/04/26 03:04:16;;;;;;;6.82;4.18;;;6.00;99.90;;;;;;5020550;28;20030;-33
2023/04/26 03:06:41;;;;;;;6.03;4.30;;;6.10;99.90;;;;;;5020265;28;20061;-33
2023/04/26 03:09:07;;;;;;;4.72;3.85;;;6.10;99.90;;;;;;5020099;28;20108;-32
2023/04/26 03:11:33;;;;;;;5.68;4.15;;;6.10;99.90;;;;;;5021354;28;20080;-32
2023/04/26 03:13:59;;;;;;;8.32;4.32;;;6.10;99.90;;;;;;5021560;28;20109;-33
2023/04/26 03:16:27;;;;;;;7.32;4.18;;;6.10;99.90;;;;;;5020737;28;20026;-33
2023/04/26 03:18:53;;;;;;;7.90;4.53;;;6.00;99.90;;;;;;5023705;28;20092;-32
2023/04/26 03:21:19;;;;;;;7.05;4.60;;;6.00;99.90;;;;;;5023137;28;20033;-33
2023/04/26 03:23:45;;;;;;;11.13;4.35;;;6.00;99.90;;;;;;5021282;28;20041;-32
2023/04/26 03:26:10;;;;;;;6.85;3.92;;;6.10;99.90;;;;;;5023987;28;20075;-33
2023/04/26 03:28:36;;;;;;;10.10;4.22;;;6.10;99.90;;;;;;5025396;28;20049;-32
2023/04/26 03:31:02;;;;;;;7.03;3.80;;;6.00;99.90;;;;;;5017894;28;20380;-33
2023/04/26 03:33:30;;;;;;;8.15;4.35;;;6.00;99.90;;;;;;5020552;28;20048;-32
2023/04/26 03:35:56;;;;;;;7.05;3.92;;;6.00;99.90;;;;;;5024217;28;20043;-32
2023/04/26 03:38:23;;;;;;;7.13;4.15;;;6.00;99.90;;;;;;5020219;28;20187;-32
2023/04/26 03:40:49;;;;;;;6.88;4.00;;;6.00;99.90;;;;;;5025453;28;20033;-33
2023/04/26 03:43:15;;;;;;;4.72;3.65;;;6.00;99.90;;;;;;5005791;28;20029;-32
2023/04/26 03:45:40;;;;;;;5.95;4.00;;;6.00;99.90;;;;;;5009115;28;20065;-32
2023/04/26 03:48:06;;;;;;;7.22;4.10;;;6.00;99.90;;;;;;5020645;28;20029;-33
2023/04/26 03:50:31;;;;;;;9.80;5.50;;;6.00;99.90;;;;;;5009641;28;20038;-33
2023/04/26 03:52:57;;;;;;;4.93;4.03;;;6.00;99.90;;;;;;5022679;28;20032;-33
2023/04/26 03:55:23;;;;;;;7.25;5.03;;;6.00;99.90;;;;;;5018658;28;20033;-33
2023/04/26 03:57:49;;;;;;;8.68;5.18;;;5.90;99.90;;;;;;5016428;28;20025;-34
2023/04/26 04:00:14;;;;;;;9.35;5.55;;;5.90;99.90;;;;;;5020351;28;20040;-32
2023/04/26 04:02:41;;;;;;;5.38;3.85;;;5.90;99.90;;;;;;5016886;28;20037;-34
2023/04/26 04:05:07;;;;;;;8.40;5.10;;;5.90;99.90;;;;;;5022126;28;20025;-32
2023/04/26 04:07:34;;;;;;;6.28;4.05;;;5.90;99.90;;;;;;5018253;28;20175;-33
2023/04/26 04:10:00;;;;;;;5.72;4.10;;;5.80;99.90;;;;;;5020520;28;20025;-33
2023/04/26 04:12:25;;;;;;;7.45;3.80;;;5.80;99.90;;;;;;5020523;28;20095;-32
2023/04/26 04:14:51;;;;;;;8.27;4.35;;;5.80;99.90;;;;;;5019709;28;20056;-33
2023/04/26 04:17:17;;;;;;;6.20;4.03;;;5.80;99.90;;;;;;5020445;28;20029;-32
2023/04/26 04:19:44;;;;;;;6.90;4.53;;;5.80;99.90;;;;;;5024418;28;20032;-33
2023/04/26 04:22:09;;;;;;;5.57;4.30;;;5.80;99.90;;;;;;5015966;28;20394;-32
2023/04/26 04:24:36;;;;;;;7.07;4.05;;;5.70;99.90;;;;;;5018283;28;20029;-32
2023/04/26 04:27:02;;;;;;;6.47;4.80;;;5.80;99.90;;;;;;5019793;28;20044;-32
2023/04/26 04:29:28;;;;;;;5.72;3.88;;;5.70;99.90;;;;;;5035958;28;20044;-33
2023/04/26 04:31:54;;;;;;;6.88;4.03;;;5.70;99.90;;;;;;5037754;28;20040;-33
2023/04/26 04:34:20;;;;;;;7.40;4.68;;;5.70;99.90;;;;;;5037804;28;20029;-33
2023/04/26 04:36:46;;;;;;;5.35;3.78;;;5.70;99.90;;;;;;5041230;28;20037;-33
2023/04/26 04:39:12;;;;;;;6.95;4.32;;;5.70;99.90;;;;;;5035286;28;20029;-33
2023/04/26 04:41:39;;;;;;;8.00;4.15;;;5.70;99.90;;;;;;5037692;28;20560;-33
2023/04/26 04:44:05;;;;;;;6.28;4.15;;;5.70;99.90;;;;;;5038422;28;20025;-32
2023/04/26 04:46:30;;;;;;;7.28;3.85;;;5.70;99.90;;;;;;5035607;28;20032;-33
2023/04/26 04:48:56;;;;;;;5.75;3.72;;;5.70;99.90;;;;;;5037622;28;20452;-33
2023/04/26 04:51:22;;;;;;;5.97;4.22;;;5.70;99.90;;;;;;5039175;28;20035;-33
2023/04/26 04:53:47;;;;;;;9.70;5.03;;;5.70;99.90;;;;;;5038445;28;20041;-32
2023/04/26 04:56:14;;;;;;;6.32;4.18;;;5.60;99.90;;;;;;5032345;28;20026;-32
2023/04/26 04:58:40;;;;;;;6.32;4.63;;;5.60;99.90;;;;;;5033835;28;20056;-32
2023/04/26 05:01:05;;;;;;;5.63;4.47;;;5.60;99.90;;;;;;5033330;28;20033;-32
2023/04/26 05:03:32;;;;;;;6.82;4.78;;;5.60;99.90;;;;;;5045628;28;20079;-32
2023/04/26 05:05:59;;;;;;;6.97;4.47;;;5.60;99.90;;;;;;5041306;28;20028;-33
2023/04/26 05:08:24;;;;;;;7.88;5.05;;;5.60;99.90;;;;;;5038496;28;20107;-32
2023/04/26 05:10:50;;;;;;;8.32;4.93;;;5.70;99.90;;;;;;5041494;28;20037;-32
2023/04/26 05:13:16;;;;;;;8.73;4.78;;;5.70;99.90;;;;;;5040945;28;20041;-32
2023/04/26 05:15:42;;;;;;;11.23;5.13;;;5.80;99.90;;;;;;5041285;28;20029;-32
2023/04/26 05:18:07;;;;;;;6.47;5.00;;;5.80;99.90;;;;;;5047296;28;20033;-32
2023/04/26 05:20:33;;;;;;;6.18;4.38;;;5.70;99.90;;;;;;5036755;28;20032;-33
2023/04/26 05:22:58;;;;;;;8.85;5.05;;;5.80;99.90;;;;;;5040342;28;21420;-32
2023/04/26 05:25:24;;;;;;;7.57;4.82;;;5.70;99.90;;;;;;5021955;28;20028;-32
2023/04/26 05:27:50;;;;;;;7.70;4.68;;;5.80;99.90;;;;;;5032943;28;20057;-32
2023/04/26 05:30:16;;;;;;;12.93;5.20;;;5.80;99.90;;;;;;5021807;28;20033;-32
2023/04/26 05:32:41;;;;;;;11.88;4.65;;;5.80;99.90;;;;;;5012108;28;20049;-33
2023/04/26 05:35:07;;;;;;;6.20;4.65;;;5.80;99.90;;;;;;5004380;28;20445;-33
2023/04/26 05:37:34;;;;;;;8.85;4.47;;;5.80;99.90;;;;;;5022929;28;20079;-33
2023/04/26 05:40:00;;;;;;;8.27;5.22;;;5.90;99.90;;;;;;5023510;28;20542;-32
2023/04/26 05:42:25;;;;;;;6.38;4.72;;;5.90;99.90;;;;;;5022082;28;20108;-33
2023/04/26 05:44:56;;;;;;;6.45;4.43;;;6.00;99.90;;;;;;5030972;28;20087;-33
2023/04/26 05:47:22;;;;;;;6.50;4.80;;;6.00;99.90;;;;;;5024793;28;20040;-33
2023/04/26 05:49:47;;;;;;;8.98;4.90;;;6.10;99.90;;;;;;5027562;28;20034;-32
2023/04/26 05:52:13;;;;;;;6.90;4.15;;;6.10;99.90;;;;;;5021104;28;20483;-34
2023/04/26 05:54:39;;;;;;;9.60;4.53;;;6.10;99.90;;;;;;5009366;28;20450;-33
2023/04/26 05:57:04;;;;;;;10.52;4.55;;;6.10;99.90;;;;;;5023721;28;20045;-33
2023/04/26 05:59:31;;;;;;;8.65;4.78;;;6.00;99.90;;;;;;5017722;28;20517;-32
2023/04/26 06:01:57;;;;;;;8.75;5.57;;;6.10;99.90;;;;;;5023188;28;20048;-32
2023/04/26 06:04:23;;;;;;;10.43;5.00;;;6.20;99.90;;;;;;5027371;28;20146;-32
2023/04/26 06:06:48;;;;;;;8.93;4.80;;;6.30;99.90;;;;;;5017392;28;20030;-33
2023/04/26 06:09:14;;;;;;;10.23;5.50;;;6.30;99.90;;;;;;5008055;28;20029;-33
2023/04/26 06:11:40;;;;;;;9.95;4.85;;;6.30;99.90;;;;;;5027680;28;20452;-32
2023/04/26 06:14:05;;;;;;;8.95;5.03;;;6.40;99.90;;;;;;5021546;28;20045;-33
2023/04/26 06:16:31;;;;;;;8.13;5.68;;;6.40;99.90;;;;;;5017957;28;20112;-32
2023/04/26 06:18:56;;;;;;;9.60;5.15;;;6.50;99.90;;;;;;5020853;28;20044;-33
2023/04/26 06:21:22;;;;;;;9.00;5.20;;;6.50;99.90;;;;;;5026513;28;20084;-33
2023/04/26 06:23:48;;;;;;;8.88;5.82;;;6.60;99.90;;;;;;5018975;28;20058;-32
2023/04/26 06:26:14;;;;;;;12.23;5.53;;;6.70;99.90;;;;;;5024523;28;20116;-33
2023/04/26 06:28:39;;;;;;;10.70;5.35;;;6.70;99.90;;;;;;5018700;28;20050;-32
2023/04/26 06:31:05;;;;;;;12.88;6.32;;;6.80;99.90;;;;;;5028004;28;20410;-32
2023/04/26 06:33:31;;;;;;;9.57;5.20;;;6.90;99.90;;;;;;5020254;28;20037;-32
2023/04/26 06:35:56;;;;;;;9.75;5.50;;;7.00;99.90;;;;;;5026058;28;20029;-32
2023/04/26 06:38:22;;;;;;;7.63;5.15;;;7.00;99.90;;;;;;5024474;28;20022;-32
2023/04/26 06:40:48;;;;;;;9.38;6.45;;;7.10;99.90;;;;;;5025713;28;20030;-32
2023/04/26 06:43:13;;;;;;;12.65;5.53;;;7.20;99.90;;;;;;5025669;28;20037;-33
2023/04/26 06:45:39;;;;;;;11.13;6.13;;;7.20;99.90;;;;;;5021529;28;20497;-33
2023/04/26 06:48:05;;;;;;;10.70;5.97;;;7.00;99.90;;;;;;5024679;28;20643;-32
2023/04/26 06:50:31;;;;;;;9.40;6.05;;;7.00;99.90;;;;;;5021165;28;20084;-32
2023/04/26 06:52:56;;;;;;;13.48;6.10;;;6.90;99.90;;;;;;5019806;28;20764;-32
2023/04/26 06:55:22;;;;;;;15.65;6.72;;;6.90;99.90;;;;;;5020721;28;20053;-32
2023/04/26 06:57:49;;;;;;;11.25;5.95;;;7.00;99.90;;;;;;5028358;28;20773;-33
2023/04/26 07:00:16;;;;;;;9.75;5.75;;;7.10;99.90;;;;;;5024941;28;20033;-32
2023/04/26 07:02:42;;;;;;;11.73;8.25;;;7.20;99.90;;;;;;5023843;28;20034;-33
2023/04/26 07:05:08;;;;;;;10.85;5.57;;;7.30;99.90;;;;;;5005183;28;20036;-33
2023/04/26 07:07:34;;;;;;;8.98;5.68;;;7.50;99.90;;;;;;5008703;28;20100;-33
2023/04/26 07:10:00;;;;;;;9.13;5.28;;;7.50;99.90;;;;;;5022640;28;20414;-32
2023/04/26 07:12:25;;;;;;;9.60;5.03;;;7.50;99.90;;;;;;5021322;28;20494;-33
2023/04/26 07:14:51;;;;;;;9.85;4.95;;;7.60;99.90;;;;;;5020089;28;20529;-32
2023/04/26 07:17:16;;;;;;;6.88;5.05;;;7.70;99.90;;;;;;5027001;28;20037;-33
2023/04/26 07:19:42;;;;;;;4.72;4.05;;;8.00;99.90;;;;;;5012675;28;20036;-33
2023/04/26 07:22:07;;;;;;;8.57;4.28;;;8.20;99.90;;;;;;5020688;28;20071;-32
2023/04/26 07:24:33;;;;;;;5.70;4.22;;;8.40;99.90;;;;;;5022443;28;20080;-33
2023/04/26 07:26:59;;;;;;;9.18;5.78;;;8.40;99.90;;;;;;5017904;28;20060;-34
2023/04/26 07:29:25;;;;;;;7.55;4.30;;;8.50;99.90;;;;;;5019644;28;20125;-33
2023/04/26 07:31:51;;;;;;;6.28;4.45;;;8.60;99.90;;;;;;5017703;28;20124;-32
2023/04/26 07:34:17;;;;;;;7.35;4.57;;;8.70;99.90;;;;;;5017240;28;20037;-32
2023/04/26 07:36:42;;;;;;;9.18;4.97;;;8.80;99.90;;;;;;5022720;28;20029;-32
2023/04/26 07:39:09;;;;;;;10.57;5.60;;;8.40;99.90;;;;;;5021595;28;20034;-32
2023/04/26 07:41:35;;;;;;;8.10;5.00;;;8.30;99.90;;;;;;5022529;28;20025;-32
2023/04/26 07:44:00;;;;;;;8.20;4.60;;;8.10;99.90;;;;;;5020287;28;20076;-32
2023/04/26 07:46:26;;;;;;;9.27;4.75;;;7.90;99.90;;;;;;5025582;28;20089;-32
2023/04/26 07:48:52;;;;;;;8.57;5.22;;;7.80;99.90;;;;;;5026110;28;20040;-33
2023/04/26 07:51:17;;;;;;;8.10;5.00;;;7.60;99.90;;;;;;5024327;28;20527;-32
2023/04/26 07:53:43;;;;;;;9.80;5.07;;;7.60;99.90;;;;;;5018271;28;20034;-33
2023/04/26 07:56:09;;;;;;;10.60;4.72;;;7.60;99.90;;;;;;5021099;28;20030;-34
2023/04/26 07:58:36;;;;;;;7.53;5.03;;;7.80;99.90;;;;;;5023376;28;20387;-32
2023/04/26 08:01:03;;;;;;;8.38;5.30;;;7.80;99.90;;;;;;5018063;28;20057;-32
2023/04/26 08:03:28;;;;;;;8.30;5.53;;;7.80;99.90;;;;;;5020990;28;20029;-32
2023/04/26 08:05:54;;;;;;;9.13;5.75;;;7.80;99.90;;;;;;5019142;28;20485;-33
2023/04/26 08:08:26;;;;;;;8.07;5.57;;;7.90;99.90;;;;;;5011028;28;20022;-33
2023/04/26 08:10:52;;;;;;;11.57;5.90;;;8.00;99.90;;;;;;5019233;28;20387;-33
2023/04/26 08:13:18;;;;;;;11.38;5.40;;;7.90;99.90;;;;;;5022510;28;20029;-32
2023/04/26 08:15:43;;;;;;;10.73;5.32;;;8.00;99.90;;;;;;5018086;28;20470;-33
2023/04/26 08:18:09;;;;;;;8.23;5.07;;;7.90;99.90;;;;;;5019416;28;20372;-36
2023/04/26 08:20:35;;;;;;;9.77;4.85;;;8.00;99.90;;;;;;5017076;28;20034;-34
2023/04/26 08:23:01;;;;;;;11.20;5.13;;;8.10;99.90;;;;;;5023084;28;20032;-33
2023/04/26 08:25:27;;;;;;;9.35;5.30;;;8.20;99.90;;;;;;5024256;28;20061;-32
2023/04/26 08:27:53;;;;;;;8.52;4.97;;;8.50;99.90;;;;;;5018140;28;20042;-32
2023/04/26 08:30:18;;;;;;;13.38;5.20;;;8.60;99.90;;;;;;5023336;28;20036;-33
2023/04/26 08:32:45;;;;;;;8.95;5.22;;;9.00;99.90;;;;;;5023039;28;20128;-33
2023/04/26 08:35:10;;;;;;;8.85;4.35;;;9.20;99.90;;;;;;5025808;28;20043;-33
2023/04/26 08:37:36;;;;;;;7.22;4.90;;;9.40;99.90;;;;;;5018754;28;20406;-33
2023/04/26 08:40:09;;;;;;;8.25;4.55;;;9.20;99.90;;;;;;5010053;28;20036;-32
2023/04/26 08:42:40;;;;;;;8.73;5.30;;;8.80;99.90;;;;;;5020283;28;20034;-33
2023/04/26 08:45:07;;;;;;;7.03;4.47;;;8.50;99.90;;;;;;5006025;28;20029;-35
2023/04/26 08:47:50;;;;;;;8.68;4.75;;;8.30;99.90;;;;;;5022372;28;20026;-33
2023/04/26 08:50:19;;;;;;;8.45;4.55;;;8.40;99.90;;;;;;5022815;28;20665;-33
2023/04/26 08:52:47;;;;;;;6.80;4.65;;;8.50;99.90;;;;;;5017577;28;20069;-33
2023/04/26 08:55:17;;;;;;;8.88;4.82;;;8.60;99.90;;;;;;5019127;28;20030;-33
2023/04/26 08:57:45;;;;;;;8.70;4.80;;;8.70;99.90;;;;;;5019095;28;20124;-32
2023/04/26 09:00:12;;;;;;;8.55;4.70;;;8.70;99.90;;;;;;5019176;28;20041;-33
2023/04/26 09:02:42;;;;;;;9.45;5.20;;;8.80;99.90;;;;;;5019931;28;20038;-33
2023/04/26 09:05:09;;;;;;;7.00;4.70;;;8.80;99.90;;;;;;5019922;28;20026;-34
2023/04/26 09:07:45;;;;;;;6.55;4.70;;;8.90;99.90;;;;;;5020821;28;20021;-39
2023/04/26 09:10:12;;;;;;;8.45;4.50;;;9.20;99.90;;;;;;5019347;28;20034;-32
2023/04/26 09:12:38;;;;;;;6.85;4.50;;;9.70;99.90;;;;;;5015197;28;20049;-32
2023/04/26 09:15:06;;;;;;;6.88;4.10;;;10.40;99.90;;;;;;5015801;28;20038;-33
2023/04/26 09:17:37;;;;;;;7.93;4.40;;;11.10;99.90;;;;;;5005713;28;20057;-32
2023/04/26 09:20:20;;;;;;;10.50;4.45;;;11.40;99.90;;;;;;5024891;28;20034;-35
2023/04/26 09:22:47;;;;;;;8.60;4.20;;;11.10;99.90;;;;;;5029058;28;20025;-32
2023/04/26 09:25:17;;;;;;;5.60;4.00;;;10.50;99.90;;;;;;5021681;28;20506;-34
2023/04/26 09:27:44;;;;;;;9.68;5.15;;;10.80;99.90;;;;;;5025221;28;20369;-32
2023/04/26 09:30:17;;;;;;;7.15;4.10;;;10.60;99.90;;;;;;5025065;28;20038;-32
2023/04/26 09:33:02;;;;;;;7.82;4.22;;;10.20;99.90;;;;;;5022743;28;20037;-32
2023/04/26 09:35:36;;;;;;;7.43;3.85;;;10.20;99.90;;;;;;5006377;28;21064;-33
2023/04/26 09:38:07;;;;;;;4.32;3.35;;;10.20;99.90;;;;;;5027894;28;20061;-32
2023/04/26 09:40:39;;;;;;;6.53;4.20;;;10.20;99.90;;;;;;5023306;28;20061;-33
2023/04/26 09:43:10;;;;;;;8.60;4.72;;;10.10;99.90;;;;;;5026772;28;20525;-33
2023/04/26 09:45:51;;;;;;;5.85;4.03;;;9.90;99.90;;;;;;5025999;28;20022;-32
2023/04/26 09:48:29;;;;;;;5.50;3.90;;;10.00;99.90;;;;;;5026421;28;20030;-32
2023/04/26 09:51:08;;;;;;;8.00;4.25;;;10.30;99.90;;;;;;5020912;28;20022;-31
2023/04/26 09:53:44;;;;;;;6.25;3.80;;;10.40;99.90;;;;;;5021471;28;20502;-32
2023/04/26 09:56:17;;;;;;;5.55;3.95;;;10.40;99.90;;;;;;5027908;28;20029;-32
2023/04/26 09:58:46;;;;;;;7.57;3.08;;;10.60;99.90;;;;;;5016886;28;20045;-32
2023/04/26 10:01:16;;;;;;;;;;;10.70;99.90;;;;;;5023978;28;20529;-32
2023/04/26 10:03:43;;;;;;;4.75;3.20;;;10.80;99.90;;;;;;5005763;28;19987;-32
2023/04/26 10:06:09;;;;;;;6.45;3.50;;;11.00;99.90;;;;;;5026116;28;20491;-33
2023/04/26 10:08:35;;;;;;;5.13;3.33;;;11.30;99.90;;;;;;5019157;28;20079;-33
2023/04/26 10:11:03;;;;;;;5.07;3.28;;;11.30;99.90;;;;;;5023581;28;20112;-32
2023/04/26 10:13:33;;;;;;;3.25;2.95;;;11.40;99.90;;;;;;5022334;28;20399;-32
2023/04/26 10:16:02;;;;;;;7.07;3.55;;;11.60;95.30;;;;;;5027768;28;20037;-33
2023/04/26 10:18:28;;;;;;;4.28;3.17;;;11.60;97.10;;;;;;5020367;28;20054;-32
2023/04/26 10:20:58;;;;;;;3.75;2.85;;;11.50;94.10;;;;;;5004083;28;20029;-32
2023/04/26 10:23:25;;;;;;;4.35;3.17;;;11.50;93.00;;;;;;5024638;28;20033;-33
2023/04/26 10:25:52;;;;;;;4.93;3.67;;;11.50;99.90;;;;;;5027476;28;20383;-32
2023/04/26 10:28:44;;;;;;;4.43;3.30;;;11.20;99.00;;;;;;5029252;28;20049;-33
2023/04/26 10:31:10;;;;;;;7.70;3.20;;;11.60;99.90;;;;;;5022877;28;20803;-34
2023/04/26 10:33:36;;;;;;;8.43;3.53;;;11.60;96.00;;;;;;5024353;28;20105;-32
2023/04/26 10:36:09;;;;;;;5.18;3.45;;;11.50;96.90;;;;;;5008565;28;20521;-33
2023/04/26 10:38:37;;;;;;;6.13;3.58;;;11.50;97.10;;;;;;5020420;28;20022;-32
2023/04/26 10:41:33;;;;;;;6.07;3.80;;;11.20;94.10;;;;;;5016100;28;20037;-33
2023/04/26 10:44:39;;;;;;;5.30;3.80;;;11.20;99.90;;;;;;5023288;28;20088;-32
2023/04/26 10:47:07;;;;;;;4.43;3.40;;;11.30;99.20;;;;;;5028595;28;20533;-32
2023/04/26 10:49:44;;;;;;;4.32;3.30;;;11.40;96.70;;;;;;5020902;28;20033;-33
2023/04/26 10:52:21;;;;;;;5.47;3.40;;;11.30;98.80;;;;;;5021189;28;20550;-32
2023/04/26 10:54:52;;;;;;;5.22;3.53;;;11.40;95.20;;;;;;5023788;28;20099;-33
2023/04/26 10:57:18;;;;;;;6.18;3.63;;;11.30;98.40;;;;;;5021329;28;20041;-32
2023/04/26 11:00:09;;;;;;;5.75;3.55;;;11.50;99.40;;;;;;5025810;28;20491;-33
2023/04/26 11:02:51;;;;;;;6.72;4.25;;;11.70;94.30;;;;;;5024553;28;20045;-32
2023/04/26 11:05:52;;;;;;;4.13;3.10;;;12.10;95.10;;;;;;5029647;28;20825;-33
2023/04/26 11:08:31;;;;;;;6.30;3.38;;;11.80;96.30;;;;;;5021757;28;20033;-32
2023/04/26 11:11:03;;;;;;;5.10;3.58;;;12.00;96.90;;;;;;5019600;28;20040;-33
2023/04/26 11:13:34;;;;;;;6.45;3.42;;;11.40;97.70;;;;;;5022405;28;20045;-32
2023/04/26 11:16:04;;;;;;;5.43;3.47;;;11.00;99.90;;;;;;5019453;28;20382;-31
2023/04/26 11:18:31;;;;;;;4.72;3.28;;;11.40;99.90;;;;;;5022300;28;20033;-32
2023/04/26 11:21:00;;;;;;;4.53;3.00;;;11.60;97.60;;;;;;5020270;28;20017;-33
2023/04/26 11:23:27;;;;;;;6.45;3.03;;;11.50;97.60;;;;;;5026402;28;20029;-32
2023/04/26 11:25:56;;;;;;;3.92;2.72;;;11.40;90.70;;;;;;5022025;28;20036;-32
2023/04/26 11:28:22;;;;;;;;;;;11.50;94.00;;;;;;5023264;28;20033;-32
2023/04/26 11:30:51;;;;;;;5.03;3.08;;;11.20;77.80;;;;;;5020775;28;19913;-34
2023/04/26 11:33:21;;;;;;;3.55;2.83;;;11.10;92.10;;;;;;5020575;28;20029;-33
2023/04/26 11:35:48;;;;;;;3.67;2.70;;;11.20;93.00;;;;;;5020919;28;20114;-33
2023/04/26 11:38:14;;;;;;;5.25;2.60;;;11.50;94.80;;;;;;5014792;28;20040;-32
2023/04/26 11:40:40;;;;;;;4.55;2.42;;;11.80;92.70;;;;;;5012824;28;20064;-32
2023/04/26 11:43:07;;;;;;;3.75;2.65;;;12.00;91.60;;;;;;5021387;28;20033;-31
2023/04/26 11:45:36;;;;;;;4.05;2.92;;;12.50;78.10;;;;;;5020191;28;20029;-33
2023/04/26 11:48:07;;;;;;;5.32;2.85;;;12.00;81.60;;;;;;5020991;28;20053;-33
2023/04/26 11:50:35;;;;;;;6.07;2.60;;;12.30;82.10;;;;;;5007304;28;20022;-34
2023/04/26 11:53:03;;;;;;;3.63;2.65;;;12.00;86.10;;;;;;5021665;28;20433;-32
2023/04/26 11:55:33;;;;;;;6.07;2.40;;;11.80;84.00;;;;;;4998514;28;20072;-32
2023/04/26 11:58:00;;;;;;;3.28;2.35;;;12.00;82.40;;;;;;5024118;28;20068;-31
2023/04/26 12:00:26;;;;;;;2.67;2.40;;;12.20;81.80;;;;;;5014514;28;20176;-32
2023/04/26 12:02:52;;;;;;;4.32;3.10;;;12.20;82.90;;;;;;5023362;28;20026;-33
2023/04/26 12:05:26;;;;;;;4.10;2.60;;;12.20;81.90;;;;;;5020984;28;20457;-33
2023/04/26 12:07:54;;;;;;;4.95;2.75;;;12.30;84.10;;;;;;5020985;28;20375;-34
2023/04/26 12:10:29;;;;;;;4.45;2.53;;;12.60;79.10;;;;;;5017410;28;20058;-33
2023/04/26 12:12:58;;;;;;;4.18;3.00;;;12.70;71.70;;;;;;5023840;28;20025;-32
2023/04/26 12:15:29;;;;;;;5.80;2.85;;;12.80;79.60;;;;;;5004952;28;20040;-33
2023/04/26 12:18:04;;;;;;;5.38;2.58;;;13.00;75.50;;;;;;5025956;28;20037;-32
2023/04/26 12:20:34;;;;;;;5.40;2.90;;;13.20;77.10;;;;;;5018298;28;20029;-32
2023/04/26 12:23:08;;;;;;;4.78;3.13;;;13.10;75.10;;;;;;5024097;28;20059;-32
2023/04/26 12:25:36;;;;;;;4.50;2.95;;;12.80;71.00;;;;;;5023826;28;20088;-32
2023/04/26 12:28:04;;;;;;;5.45;3.00;;;12.90;76.80;;;;;;5015867;28;20502;-34
2023/04/26 12:30:30;;;;;;;2.95;2.58;;;13.00;75.00;;;;;;5004681;28;20025;-32
2023/04/26 12:32:56;;;;;;;3.70;2.53;;;13.30;70.90;;;;;;5020714;28;20037;-35
2023/04/26 12:35:23;;;;;;;3.42;2.45;;;13.60;65.90;;;;;;5017620;28;20084;-33
2023/04/26 12:37:51;;;;;;;4.75;2.75;;;13.50;65.50;;;;;;5029764;28;20059;-34
2023/04/26 12:40:18;;;;;;;7.07;2.45;;;13.20;67.60;;;;;;5022780;28;20040;-32
2023/04/26 12:42:46;;;;;;;4.05;2.58;;;13.00;72.80;;;;;;5019327;28;20025;-33
2023/04/26 12:45:11;;;;;;;2.95;2.67;;;13.30;84.10;;;;;;5021024;28;20041;-33
2023/04/26 12:47:37;;;;;;;2.65;2.45;;;13.70;72.00;;;;;;5022832;28;20686;-33
2023/04/26 12:50:04;;;;;;;5.07;2.50;;;13.60;71.50;;;;;;5007604;28;20026;-32
2023/04/26 12:52:29;;;;;;;3.95;2.55;;;13.60;73.20;;;;;;5021439;28;20051;-32
2023/04/26 12:54:55;;;;;;;5.68;2.75;;;13.90;68.90;;;;;;5021575;28;20025;-35